首页
METAR-TAF:

METAR-TAF

机场 :

曼島,

纬度: 54-05N, 经度: 004-38W, 海拔: 17米

当前天气观测

该预报发布于31分钟前的13:50 UTC
风速20节,风向西转西北
温度 8°C
湿度 46%
气压 1016 hPa
能见度10公里或以上
少量云层高于3000英尺

METAR: EGNS 231350Z 29020KT 9999 FEW030 08/M03 Q1016 NOSIG

时间: 14:21 (14:21 UTC)

预报

该预报发布于3小时和21分钟前的11:00 UTC
预报有效从23日的 12点(UTC)到 23日的 21点(UTC)
风速18节,风向西转西北
能见度10公里或以上
少量云层高于2000英尺

TAF: EGNS 231100Z 2312/2321 30018KT 9999 FEW020

超过4000个机场的气象观测和天气预报(METAR&TAF报告)。

可查询的气象台以黄色和红色小点在地图上表示。

将鼠标移到小点上方,可查看气象台名称。

然后点击查看天气观测和预报。

如需切换地图:点击带黑十字的绿色按钮放大地图;点击带横线的绿色按钮缩小地图;或者点击绿色箭头查看邻近地区的地图。


METAR-TAF: